Orio, Spain
Current Conditions -  °F | °C
As of 9:30 PM on Tuesday 25 Nov 2014 (Local Time) from LESO Reporting Station
Broken Clouds Broken Clouds  
Wind Chill: 59°   Ceiling: 2700
Heat Index: 59°   Visibility: 6mi
Dew Point: 57°   Wind: 1mph
Humidity: 94%   Direction: NA
Pressure: 30"   Gusts: NA
Location:  43.28°N, 2.13°W
Report Text: LESO 252030Z VRB01KT 9999 SCT017 BKN027 15/14 Q1016
Loading
Personal Weather Stations






























Interactive Weather Map New forecast layout! Learn more

10-Day Weather Forecast

Advertisements
Track Severe Weather on mobile